sensor_id;sensor_type;location;lat;lon;timestamp;temperature;humidity
24682;DHT22;12802;53.390;-2.328;2022-09-12T00:01:58;16.30;99.90
24682;DHT22;12802;53.390;-2.328;2022-09-12T00:04:24;16.30;99.90
24682;DHT22;12802;53.390;-2.328;2022-09-12T00:06:51;16.30;99.90
24682;DHT22;12802;53.390;-2.328;2022-09-12T00:09:17;16.30;99.90
24682;DHT22;12802;53.390;-2.328;2022-09-12T00:11:44;16.30;99.90
24682;DHT22;12802;53.390;-2.328;2022-09-12T00:14:14;16.30;99.90
24682;DHT22;12802;53.390;-2.328;2022-09-12T00:16:40;16.30;99.90
24682;DHT22;12802;53.390;-2.328;2022-09-12T00:19:06;16.30;99.90
24682;DHT22;12802;53.390;-2.328;2022-09-12T00:21:34;16.30;99.90
24682;DHT22;12802;53.390;-2.328;2022-09-12T00:24:01;16.30;99.90
24682;DHT22;12802;53.390;-2.328;2022-09-12T00:26:27;16.30;99.90
24682;DHT22;12802;53.390;-2.328;2022-09-12T00:28:53;16.20;99.90
24682;DHT22;12802;53.390;-2.328;2022-09-12T00:31:21;16.30;99.90
24682;DHT22;12802;53.390;-2.328;2022-09-12T00:33:48;16.30;99.90
24682;DHT22;12802;53.390;-2.328;2022-09-12T00:36:17;16.30;99.90
24682;DHT22;12802;53.390;-2.328;2022-09-12T00:38:44;16.30;99.90
24682;DHT22;12802;53.390;-2.328;2022-09-12T00:41:38;16.30;99.90
24682;DHT22;12802;53.390;-2.328;2022-09-12T00:55:31;16.20;99.90
24682;DHT22;12802;53.390;-2.328;2022-09-12T00:57:39;16.20;99.90
24682;DHT22;12802;53.390;-2.328;2022-09-12T01:00:10;16.20;99.90
24682;DHT22;12802;53.390;-2.328;2022-09-12T01:02:45;16.20;99.90
24682;DHT22;12802;53.390;-2.328;2022-09-12T01:05:13;16.20;99.90
24682;DHT22;12802;53.390;-2.328;2022-09-12T01:07:39;16.20;99.90
24682;DHT22;12802;53.390;-2.328;2022-09-12T01:10:07;16.30;99.90
24682;DHT22;12802;53.390;-2.328;2022-09-12T01:12:37;16.30;99.90
24682;DHT22;12802;53.390;-2.328;2022-09-12T01:15:03;16.20;99.90
24682;DHT22;12802;53.390;-2.328;2022-09-12T01:18:19;16.20;99.90
24682;DHT22;12802;53.390;-2.328;2022-09-12T01:26:36;16.20;99.90
24682;DHT22;12802;53.390;-2.328;2022-09-12T01:32:18;16.30;99.90
24682;DHT22;12802;53.390;-2.328;2022-09-12T01:35:27;16.30;99.90
24682;DHT22;12802;53.390;-2.328;2022-09-12T01:40:41;16.30;99.90
24682;DHT22;12802;53.390;-2.328;2022-09-12T01:43:26;16.30;99.90
24682;DHT22;12802;53.390;-2.328;2022-09-12T01:46:22;16.30;99.90
24682;DHT22;12802;53.390;-2.328;2022-09-12T01:48:58;16.30;99.90
24682;DHT22;12802;53.390;-2.328;2022-09-12T01:51:35;16.30;99.90
24682;DHT22;12802;53.390;-2.328;2022-09-12T01:54:21;16.30;99.90
24682;DHT22;12802;53.390;-2.328;2022-09-12T01:56:54;16.30;99.90
24682;DHT22;12802;53.390;-2.328;2022-09-12T02:01:59;16.30;99.90
24682;DHT22;12802;53.390;-2.328;2022-09-12T02:04:30;16.40;99.90
24682;DHT22;12802;53.390;-2.328;2022-09-12T02:07:12;16.30;99.90
24682;DHT22;12802;53.390;-2.328;2022-09-12T02:09:53;16.30;99.90
24682;DHT22;12802;53.390;-2.328;2022-09-12T02:12:26;16.40;99.90
24682;DHT22;12802;53.390;-2.328;2022-09-12T02:14:58;16.30;99.90
24682;DHT22;12802;53.390;-2.328;2022-09-12T02:17:28;16.30;99.90
24682;DHT22;12802;53.390;-2.328;2022-09-12T02:20:04;16.30;99.90
24682;DHT22;12802;53.390;-2.328;2022-09-12T02:22:35;16.30;99.90
24682;DHT22;12802;53.390;-2.328;2022-09-12T02:25:03;16.30;99.90
24682;DHT22;12802;53.390;-2.328;2022-09-12T02:27:39;16.30;99.90
24682;DHT22;12802;53.390;-2.328;2022-09-12T02:30:07;16.30;99.90
24682;DHT22;12802;53.390;-2.328;2022-09-12T02:32:37;16.30;99.90
24682;DHT22;12802;53.390;-2.328;2022-09-12T02:37:44;16.30;99.90
24682;DHT22;12802;53.390;-2.328;2022-09-12T02:40:12;16.40;99.90
24682;DHT22;12802;53.390;-2.328;2022-09-12T02:42:38;16.40;99.90
24682;DHT22;12802;53.390;-2.328;2022-09-12T02:45:05;16.30;99.90
24682;DHT22;12802;53.390;-2.328;2022-09-12T02:48:01;16.40;99.90
24682;DHT22;12802;53.390;-2.328;2022-09-12T02:50:29;16.30;99.90
24682;DHT22;12802;53.390;-2.328;2022-09-12T02:52:55;16.30;99.90
24682;DHT22;12802;53.390;-2.328;2022-09-12T02:55:25;16.30;99.90
24682;DHT22;12802;53.390;-2.328;2022-09-12T02:57:52;16.40;99.90
24682;DHT22;12802;53.390;-2.328;2022-09-12T03:00:18;16.30;99.90
24682;DHT22;12802;53.390;-2.328;2022-09-12T03:03:26;16.30;99.90
24682;DHT22;12802;53.390;-2.328;2022-09-12T03:05:58;16.40;99.90
24682;DHT22;12802;53.390;-2.328;2022-09-12T03:14:05;16.30;99.90
24682;DHT22;12802;53.390;-2.328;2022-09-12T03:30:11;16.30;99.90
24682;DHT22;12802;53.390;-2.328;2022-09-12T03:32:48;16.30;99.90
24682;DHT22;12802;53.390;-2.328;2022-09-12T03:35:16;16.30;99.90
24682;DHT22;12802;53.390;-2.328;2022-09-12T03:37:43;16.30;99.90
24682;DHT22;12802;53.390;-2.328;2022-09-12T03:40:11;16.30;99.90
24682;DHT22;12802;53.390;-2.328;2022-09-12T03:42:37;16.30;99.90
24682;DHT22;12802;53.390;-2.328;2022-09-12T03:45:04;16.30;99.90
24682;DHT22;12802;53.390;-2.328;2022-09-12T03:47:30;16.30;99.90
24682;DHT22;12802;53.390;-2.328;2022-09-12T03:49:56;16.30;99.90
24682;DHT22;12802;53.390;-2.328;2022-09-12T03:52:22;16.40;99.90
24682;DHT22;12802;53.390;-2.328;2022-09-12T03:54:48;16.40;99.90
24682;DHT22;12802;53.390;-2.328;2022-09-12T03:57:14;16.40;99.90
24682;DHT22;12802;53.390;-2.328;2022-09-12T03:59:40;16.40;99.90
24682;DHT22;12802;53.390;-2.328;2022-09-12T04:02:06;16.40;99.90
24682;DHT22;12802;53.390;-2.328;2022-09-12T04:04:32;16.40;99.90
24682;DHT22;12802;53.390;-2.328;2022-09-12T04:06:58;16.40;99.90
24682;DHT22;12802;53.390;-2.328;2022-09-12T04:09:23;16.40;99.90
24682;DHT22;12802;53.390;-2.328;2022-09-12T04:11:49;16.40;99.90
24682;DHT22;12802;53.390;-2.328;2022-09-12T04:14:15;16.40;99.90
24682;DHT22;12802;53.390;-2.328;2022-09-12T04:16:40;16.40;99.90
24682;DHT22;12802;53.390;-2.328;2022-09-12T04:19:06;16.40;99.90
24682;DHT22;12802;53.390;-2.328;2022-09-12T04:21:32;16.40;99.90
24682;DHT22;12802;53.390;-2.328;2022-09-12T04:23:58;16.40;99.90
24682;DHT22;12802;53.390;-2.328;2022-09-12T04:26:23;16.40;99.90
24682;DHT22;12802;53.390;-2.328;2022-09-12T04:28:53;16.40;99.90
24682;DHT22;12802;53.390;-2.328;2022-09-12T04:31:19;16.30;99.90
24682;DHT22;12802;53.390;-2.328;2022-09-12T04:33:59;16.40;99.90
24682;DHT22;12802;53.390;-2.328;2022-09-12T04:36:27;16.40;99.90
24682;DHT22;12802;53.390;-2.328;2022-09-12T04:38:53;16.40;99.90
24682;DHT22;12802;53.390;-2.328;2022-09-12T04:41:25;16.40;99.90
24682;DHT22;12802;53.390;-2.328;2022-09-12T04:43:54;16.40;99.90
24682;DHT22;12802;53.390;-2.328;2022-09-12T04:46:20;16.40;99.90
24682;DHT22;12802;53.390;-2.328;2022-09-12T04:48:47;16.40;99.90
24682;DHT22;12802;53.390;-2.328;2022-09-12T04:51:16;16.40;99.90
24682;DHT22;12802;53.390;-2.328;2022-09-12T04:53:42;16.40;99.90
24682;DHT22;12802;53.390;-2.328;2022-09-12T04:56:11;16.40;99.90
24682;DHT22;12802;53.390;-2.328;2022-09-12T04:58:38;16.40;99.90
24682;DHT22;12802;53.390;-2.328;2022-09-12T05:01:18;16.40;99.90
24682;DHT22;12802;53.390;-2.328;2022-09-12T05:03:45;16.40;99.90
24682;DHT22;12802;53.390;-2.328;2022-09-12T05:06:17;16.40;99.90
24682;DHT22;12802;53.390;-2.328;2022-09-12T05:08:44;16.40;99.90
24682;DHT22;12802;53.390;-2.328;2022-09-12T05:11:15;16.40;99.90
24682;DHT22;12802;53.390;-2.328;2022-09-12T05:13:41;16.40;99.90
24682;DHT22;12802;53.390;-2.328;2022-09-12T05:16:09;16.40;99.90
24682;DHT22;12802;53.390;-2.328;2022-09-12T05:18:36;16.40;99.90
24682;DHT22;12802;53.390;-2.328;2022-09-12T05:21:04;16.40;99.90
24682;DHT22;12802;53.390;-2.328;2022-09-12T05:23:31;16.40;99.90
24682;DHT22;12802;53.390;-2.328;2022-09-12T05:25:58;16.40;99.90
24682;DHT22;12802;53.390;-2.328;2022-09-12T05:28:28;16.40;99.90
24682;DHT22;12802;53.390;-2.328;2022-09-12T05:31:06;16.40;99.90
24682;DHT22;12802;53.390;-2.328;2022-09-12T05:33:33;16.40;99.90
24682;DHT22;12802;53.390;-2.328;2022-09-12T05:35:59;16.40;99.90
24682;DHT22;12802;53.390;-2.328;2022-09-12T05:38:25;16.40;99.90
24682;DHT22;12802;53.390;-2.328;2022-09-12T05:40:55;16.40;99.90
24682;DHT22;12802;53.390;-2.328;2022-09-12T05:43:28;16.40;99.90
24682;DHT22;12802;53.390;-2.328;2022-09-12T05:46:02;16.40;99.90
24682;DHT22;12802;53.390;-2.328;2022-09-12T05:48:29;16.40;99.90
24682;DHT22;12802;53.390;-2.328;2022-09-12T05:51:07;16.40;99.90
24682;DHT22;12802;53.390;-2.328;2022-09-12T05:53:34;16.40;99.90
24682;DHT22;12802;53.390;-2.328;2022-09-12T05:56:11;16.40;99.90
24682;DHT22;12802;53.390;-2.328;2022-09-12T05:58:39;16.30;99.90
24682;DHT22;12802;53.390;-2.328;2022-09-12T06:01:26;16.30;99.90
24682;DHT22;12802;53.390;-2.328;2022-09-12T06:03:53;16.30;99.90
24682;DHT22;12802;53.390;-2.328;2022-09-12T06:06:22;16.30;99.90
24682;DHT22;12802;53.390;-2.328;2022-09-12T06:08:50;16.30;99.90
24682;DHT22;12802;53.390;-2.328;2022-09-12T06:11:19;16.30;99.90
24682;DHT22;12802;53.390;-2.328;2022-09-12T06:13:45;16.30;99.90
24682;DHT22;12802;53.390;-2.328;2022-09-12T06:16:19;16.30;99.90
24682;DHT22;12802;53.390;-2.328;2022-09-12T06:18:47;16.30;99.90
24682;DHT22;12802;53.390;-2.328;2022-09-12T06:21:13;16.30;99.90
24682;DHT22;12802;53.390;-2.328;2022-09-12T06:23:39;16.30;99.90
24682;DHT22;12802;53.390;-2.328;2022-09-12T06:26:08;16.30;99.90
24682;DHT22;12802;53.390;-2.328;2022-09-12T06:28:35;16.40;99.90
24682;DHT22;12802;53.390;-2.328;2022-09-12T06:31:03;16.40;99.90
24682;DHT22;12802;53.390;-2.328;2022-09-12T06:33:30;16.40;99.90
24682;DHT22;12802;53.390;-2.328;2022-09-12T06:36:05;16.40;99.90
24682;DHT22;12802;53.390;-2.328;2022-09-12T06:38:32;16.40;99.90
24682;DHT22;12802;53.390;-2.328;2022-09-12T06:40:59;16.40;99.90
24682;DHT22;12802;53.390;-2.328;2022-09-12T06:43:26;16.40;99.90
24682;DHT22;12802;53.390;-2.328;2022-09-12T06:45:52;16.40;99.90
24682;DHT22;12802;53.390;-2.328;2022-09-12T06:48:18;16.40;99.90
24682;DHT22;12802;53.390;-2.328;2022-09-12T06:50:55;16.40;99.90
24682;DHT22;12802;53.390;-2.328;2022-09-12T06:53:21;16.40;99.90
24682;DHT22;12802;53.390;-2.328;2022-09-12T06:55:54;16.40;99.90
24682;DHT22;12802;53.390;-2.328;2022-09-12T06:58:20;16.40;99.90
24682;DHT22;12802;53.390;-2.328;2022-09-12T07:00:46;16.50;99.90
24682;DHT22;12802;53.390;-2.328;2022-09-12T07:03:11;16.50;99.90
24682;DHT22;12802;53.390;-2.328;2022-09-12T07:05:37;16.50;99.90
24682;DHT22;12802;53.390;-2.328;2022-09-12T07:08:03;16.50;99.90
24682;DHT22;12802;53.390;-2.328;2022-09-12T07:10:28;16.50;99.90
24682;DHT22;12802;53.390;-2.328;2022-09-12T07:12:55;16.50;99.90
24682;DHT22;12802;53.390;-2.328;2022-09-12T07:15:21;16.50;99.90
24682;DHT22;12802;53.390;-2.328;2022-09-12T07:17:47;16.50;99.90
24682;DHT22;12802;53.390;-2.328;2022-09-12T07:20:12;16.50;99.90
24682;DHT22;12802;53.390;-2.328;2022-09-12T07:22:38;16.50;99.90
24682;DHT22;12802;53.390;-2.328;2022-09-12T07:25:07;16.50;99.90
24682;DHT22;12802;53.390;-2.328;2022-09-12T07:27:33;16.60;99.90
24682;DHT22;12802;53.390;-2.328;2022-09-12T07:29:59;16.60;99.90
24682;DHT22;12802;53.390;-2.328;2022-09-12T07:32:25;16.60;99.90
24682;DHT22;12802;53.390;-2.328;2022-09-12T07:34:51;16.50;99.90
24682;DHT22;12802;53.390;-2.328;2022-09-12T07:37:17;16.60;99.90
24682;DHT22;12802;53.390;-2.328;2022-09-12T07:39:43;16.60;99.90
24682;DHT22;12802;53.390;-2.328;2022-09-12T07:42:09;16.60;99.90
24682;DHT22;12802;53.390;-2.328;2022-09-12T07:44:37;16.60;99.90
24682;DHT22;12802;53.390;-2.328;2022-09-12T07:47:02;16.70;99.90
24682;DHT22;12802;53.390;-2.328;2022-09-12T07:49:28;16.70;99.90
24682;DHT22;12802;53.390;-2.328;2022-09-12T07:51:55;16.70;99.90
24682;DHT22;12802;53.390;-2.328;2022-09-12T07:54:21;16.70;99.90
24682;DHT22;12802;53.390;-2.328;2022-09-12T07:56:47;16.70;99.90
24682;DHT22;12802;53.390;-2.328;2022-09-12T07:59:13;16.70;99.90
24682;DHT22;12802;53.390;-2.328;2022-09-12T08:01:39;16.80;99.90
24682;DHT22;12802;53.390;-2.328;2022-09-12T08:04:06;16.80;99.90
24682;DHT22;12802;53.390;-2.328;2022-09-12T08:06:32;16.80;99.90
24682;DHT22;12802;53.390;-2.328;2022-09-12T08:09:00;16.80;99.90
24682;DHT22;12802;53.390;-2.328;2022-09-12T08:11:27;16.90;99.90
24682;DHT22;12802;53.390;-2.328;2022-09-12T08:13:54;16.90;99.90
24682;DHT22;12802;53.390;-2.328;2022-09-12T08:16:24;16.90;99.90
24682;DHT22;12802;53.390;-2.328;2022-09-12T08:18:50;16.90;99.90
24682;DHT22;12802;53.390;-2.328;2022-09-12T08:21:36;16.90;99.90
24682;DHT22;12802;53.390;-2.328;2022-09-12T08:24:03;17.00;99.90
24682;DHT22;12802;53.390;-2.328;2022-09-12T08:26:31;17.00;99.90
24682;DHT22;12802;53.390;-2.328;2022-09-12T08:28:57;17.10;99.90
24682;DHT22;12802;53.390;-2.328;2022-09-12T08:31:25;17.10;99.90
24682;DHT22;12802;53.390;-2.328;2022-09-12T08:33:53;17.20;99.90
24682;DHT22;12802;53.390;-2.328;2022-09-12T08:36:21;17.30;99.90
24682;DHT22;12802;53.390;-2.328;2022-09-12T08:38:50;17.30;99.90
24682;DHT22;12802;53.390;-2.328;2022-09-12T08:49:12;17.50;99.90
24682;DHT22;12802;53.390;-2.328;2022-09-12T08:51:39;17.50;99.90
24682;DHT22;12802;53.390;-2.328;2022-09-12T08:54:22;17.60;99.90
24682;DHT22;12802;53.390;-2.328;2022-09-12T08:56:50;17.60;99.90
24682;DHT22;12802;53.390;-2.328;2022-09-12T08:59:16;17.60;99.90
24682;DHT22;12802;53.390;-2.328;2022-09-12T09:01:43;17.60;99.90
24682;DHT22;12802;53.390;-2.328;2022-09-12T09:20:25;17.90;99.90
24682;DHT22;12802;53.390;-2.328;2022-09-12T09:23:11;17.90;99.90
24682;DHT22;12802;53.390;-2.328;2022-09-12T09:25:53;18.00;99.90
24682;DHT22;12802;53.390;-2.328;2022-09-12T09:30:59;18.10;99.90
24682;DHT22;12802;53.390;-2.328;2022-09-12T09:33:32;18.10;99.90
24682;DHT22;12802;53.390;-2.328;2022-09-12T09:39:04;18.20;99.90
24682;DHT22;12802;53.390;-2.328;2022-09-12T09:41:55;18.10;99.90
24682;DHT22;12802;53.390;-2.328;2022-09-12T09:44:24;18.20;99.90
24682;DHT22;12802;53.390;-2.328;2022-09-12T09:46:54;18.20;99.90
24682;DHT22;12802;53.390;-2.328;2022-09-12T09:49:23;18.20;99.90
24682;DHT22;12802;53.390;-2.328;2022-09-12T09:51:50;18.20;99.90
24682;DHT22;12802;53.390;-2.328;2022-09-12T09:54:24;18.30;99.90
24682;DHT22;12802;53.390;-2.328;2022-09-12T09:56:51;18.30;99.90
24682;DHT22;12802;53.390;-2.328;2022-09-12T09:59:26;18.30;99.90
24682;DHT22;12802;53.390;-2.328;2022-09-12T10:04:34;18.30;99.90
24682;DHT22;12802;53.390;-2.328;2022-09-12T10:07:02;18.30;99.90
24682;DHT22;12802;53.390;-2.328;2022-09-12T10:09:30;18.30;99.90
24682;DHT22;12802;53.390;-2.328;2022-09-12T10:11:58;18.30;99.90
24682;DHT22;12802;53.390;-2.328;2022-09-12T10:14:39;18.30;99.90
24682;DHT22;12802;53.390;-2.328;2022-09-12T10:17:43;18.30;99.90
24682;DHT22;12802;53.390;-2.328;2022-09-12T10:20:30;18.30;99.90
24682;DHT22;12802;53.390;-2.328;2022-09-12T10:23:00;18.40;99.90
24682;DHT22;12802;53.390;-2.328;2022-09-12T10:25:26;18.40;99.90
24682;DHT22;12802;53.390;-2.328;2022-09-12T10:27:55;18.40;99.90
24682;DHT22;12802;53.390;-2.328;2022-09-12T10:30:21;18.40;99.90
24682;DHT22;12802;53.390;-2.328;2022-09-12T10:32:55;18.40;99.90
24682;DHT22;12802;53.390;-2.328;2022-09-12T10:35:26;18.50;99.90
24682;DHT22;12802;53.390;-2.328;2022-09-12T10:37:59;18.50;99.90
24682;DHT22;12802;53.390;-2.328;2022-09-12T10:40:41;18.40;99.90
24682;DHT22;12802;53.390;-2.328;2022-09-12T10:43:33;18.40;99.90
24682;DHT22;12802;53.390;-2.328;2022-09-12T10:46:25;18.50;99.90
24682;DHT22;12802;53.390;-2.328;2022-09-12T10:51:37;18.50;99.90
24682;DHT22;12802;53.390;-2.328;2022-09-12T10:54:06;18.60;99.90
24682;DHT22;12802;53.390;-2.328;2022-09-12T10:56:35;18.60;99.90
24682;DHT22;12802;53.390;-2.328;2022-09-12T11:06:38;18.70;99.90
24682;DHT22;12802;53.390;-2.328;2022-09-12T11:11:51;18.90;99.90
24682;DHT22;12802;53.390;-2.328;2022-09-12T11:14:43;19.00;99.90
24682;DHT22;12802;53.390;-2.328;2022-09-12T11:25:29;19.20;99.90
24682;DHT22;12802;53.390;-2.328;2022-09-12T11:28:05;19.30;99.90
24682;DHT22;12802;53.390;-2.328;2022-09-12T11:36:04;19.10;99.90
24682;DHT22;12802;53.390;-2.328;2022-09-12T11:38:50;19.20;99.90
24682;DHT22;12802;53.390;-2.328;2022-09-12T11:41:25;19.20;99.90
24682;DHT22;12802;53.390;-2.328;2022-09-12T11:46:41;19.20;99.90
24682;DHT22;12802;53.390;-2.328;2022-09-12T11:49:14;19.10;99.90
24682;DHT22;12802;53.390;-2.328;2022-09-12T11:52:03;19.00;99.90
24682;DHT22;12802;53.390;-2.328;2022-09-12T11:59:51;18.90;99.90
24682;DHT22;12802;53.390;-2.328;2022-09-12T12:02:30;18.90;99.90
24682;DHT22;12802;53.390;-2.328;2022-09-12T12:05:24;18.90;99.90
24682;DHT22;12802;53.390;-2.328;2022-09-12T12:10:41;18.90;99.90
24682;DHT22;12802;53.390;-2.328;2022-09-12T12:13:24;18.90;99.90
24682;DHT22;12802;53.390;-2.328;2022-09-12T12:16:04;19.00;99.90
24682;DHT22;12802;53.390;-2.328;2022-09-12T12:18:35;19.00;99.90
24682;DHT22;12802;53.390;-2.328;2022-09-12T12:24:03;19.00;99.90
24682;DHT22;12802;53.390;-2.328;2022-09-12T12:34:36;18.90;99.90
24682;DHT22;12802;53.390;-2.328;2022-09-12T12:42:09;18.90;99.90
24682;DHT22;12802;53.390;-2.328;2022-09-12T12:49:58;19.00;99.90
24682;DHT22;12802;53.390;-2.328;2022-09-12T12:52:29;19.00;99.90
24682;DHT22;12802;53.390;-2.328;2022-09-12T12:54:57;19.00;99.90
24682;DHT22;12802;53.390;-2.328;2022-09-12T12:57:40;18.90;99.90
24682;DHT22;12802;53.390;-2.328;2022-09-12T13:03:00;18.90;99.90
24682;DHT22;12802;53.390;-2.328;2022-09-12T13:05:30;18.80;99.90
24682;DHT22;12802;53.390;-2.328;2022-09-12T13:10:36;18.90;99.90
24682;DHT22;12802;53.390;-2.328;2022-09-12T13:13:04;18.90;99.90
24682;DHT22;12802;53.390;-2.328;2022-09-12T13:21:11;18.80;99.90
24682;DHT22;12802;53.390;-2.328;2022-09-12T13:23:37;18.80;99.90
24682;DHT22;12802;53.390;-2.328;2022-09-12T13:26:13;18.90;99.90
24682;DHT22;12802;53.390;-2.328;2022-09-12T13:28:45;18.90;99.90
24682;DHT22;12802;53.390;-2.328;2022-09-12T13:31:23;18.90;99.90
24682;DHT22;12802;53.390;-2.328;2022-09-12T13:33:52;18.90;99.90
24682;DHT22;12802;53.390;-2.328;2022-09-12T13:39:16;18.90;99.90
24682;DHT22;12802;53.390;-2.328;2022-09-12T13:45:10;18.90;99.90
24682;DHT22;12802;53.390;-2.328;2022-09-12T13:47:41;18.90;99.90
24682;DHT22;12802;53.390;-2.328;2022-09-12T13:50:21;18.90;99.90
24682;DHT22;12802;53.390;-2.328;2022-09-12T13:52:56;18.90;99.90
24682;DHT22;12802;53.390;-2.328;2022-09-12T13:58:01;18.90;99.90
24682;DHT22;12802;53.390;-2.328;2022-09-12T14:00:29;18.90;99.90
24682;DHT22;12802;53.390;-2.328;2022-09-12T14:02:58;18.90;99.90
24682;DHT22;12802;53.390;-2.328;2022-09-12T14:05:48;18.90;99.90
24682;DHT22;12802;53.390;-2.328;2022-09-12T14:08:19;18.80;99.90
24682;DHT22;12802;53.390;-2.328;2022-09-12T14:10:47;18.90;99.90
24682;DHT22;12802;53.390;-2.328;2022-09-12T14:13:18;18.80;99.90
24682;DHT22;12802;53.390;-2.328;2022-09-12T14:15:50;18.70;99.90
24682;DHT22;12802;53.390;-2.328;2022-09-12T14:20:48;18.70;99.90
24682;DHT22;12802;53.390;-2.328;2022-09-12T14:25:52;18.60;99.90
24682;DHT22;12802;53.390;-2.328;2022-09-12T14:28:21;18.60;99.90
24682;DHT22;12802;53.390;-2.328;2022-09-12T14:31:23;18.60;99.90
24682;DHT22;12802;53.390;-2.328;2022-09-12T14:33:54;18.60;99.90
24682;DHT22;12802;53.390;-2.328;2022-09-12T14:36:30;18.50;99.90
24682;DHT22;12802;53.390;-2.328;2022-09-12T14:39:00;18.50;99.90
24682;DHT22;12802;53.390;-2.328;2022-09-12T14:41:29;18.50;99.90
24682;DHT22;12802;53.390;-2.328;2022-09-12T14:43:59;18.50;99.90
24682;DHT22;12802;53.390;-2.328;2022-09-12T14:46:32;18.50;99.90
24682;DHT22;12802;53.390;-2.328;2022-09-12T14:51:47;18.50;99.90
24682;DHT22;12802;53.390;-2.328;2022-09-12T14:54:34;18.50;99.90
24682;DHT22;12802;53.390;-2.328;2022-09-12T14:57:05;18.50;99.90
24682;DHT22;12802;53.390;-2.328;2022-09-12T15:10:01;18.40;99.90
24682;DHT22;12802;53.390;-2.328;2022-09-12T15:12:27;18.40;99.90
24682;DHT22;12802;53.390;-2.328;2022-09-12T15:15:03;18.40;99.90
24682;DHT22;12802;53.390;-2.328;2022-09-12T15:17:31;18.30;99.90
24682;DHT22;12802;53.390;-2.328;2022-09-12T15:19:57;18.40;99.90
24682;DHT22;12802;53.390;-2.328;2022-09-12T15:22:23;18.30;99.90
24682;DHT22;12802;53.390;-2.328;2022-09-12T15:24:50;18.20;99.90
24682;DHT22;12802;53.390;-2.328;2022-09-12T15:27:16;18.20;99.90
24682;DHT22;12802;53.390;-2.328;2022-09-12T15:29:42;18.10;99.90
24682;DHT22;12802;53.390;-2.328;2022-09-12T15:32:12;18.10;99.90
24682;DHT22;12802;53.390;-2.328;2022-09-12T15:34:41;18.10;99.90
24682;DHT22;12802;53.390;-2.328;2022-09-12T15:37:11;18.10;99.90
24682;DHT22;12802;53.390;-2.328;2022-09-12T15:39:38;18.10;99.90
24682;DHT22;12802;53.390;-2.328;2022-09-12T15:42:04;18.00;99.90
24682;DHT22;12802;53.390;-2.328;2022-09-12T15:44:30;18.00;99.90
24682;DHT22;12802;53.390;-2.328;2022-09-12T15:46:55;18.00;99.90
24682;DHT22;12802;53.390;-2.328;2022-09-12T15:49:21;17.90;99.90
24682;DHT22;12802;53.390;-2.328;2022-09-12T15:51:47;17.90;99.90
24682;DHT22;12802;53.390;-2.328;2022-09-12T15:54:14;17.80;99.90
24682;DHT22;12802;53.390;-2.328;2022-09-12T15:56:41;17.80;99.90
24682;DHT22;12802;53.390;-2.328;2022-09-12T15:59:08;17.80;99.90
24682;DHT22;12802;53.390;-2.328;2022-09-12T16:01:34;17.70;99.90
24682;DHT22;12802;53.390;-2.328;2022-09-12T16:04:01;17.70;99.90
24682;DHT22;12802;53.390;-2.328;2022-09-12T16:06:27;17.70;99.90
24682;DHT22;12802;53.390;-2.328;2022-09-12T16:08:55;17.70;99.90
24682;DHT22;12802;53.390;-2.328;2022-09-12T16:11:26;17.70;99.90
24682;DHT22;12802;53.390;-2.328;2022-09-12T16:13:52;17.70;99.90
24682;DHT22;12802;53.390;-2.328;2022-09-12T16:16:18;17.70;99.90
24682;DHT22;12802;53.390;-2.328;2022-09-12T16:18:44;17.70;99.90
24682;DHT22;12802;53.390;-2.328;2022-09-12T16:21:10;17.70;99.90
24682;DHT22;12802;53.390;-2.328;2022-09-12T16:23:36;17.60;99.90
24682;DHT22;12802;53.390;-2.328;2022-09-12T16:26:05;17.60;99.90
24682;DHT22;12802;53.390;-2.328;2022-09-12T16:28:31;17.60;99.90
24682;DHT22;12802;53.390;-2.328;2022-09-12T16:31:02;17.70;99.90
24682;DHT22;12802;53.390;-2.328;2022-09-12T16:33:30;17.60;99.90
24682;DHT22;12802;53.390;-2.328;2022-09-12T16:36:05;17.60;99.90
24682;DHT22;12802;53.390;-2.328;2022-09-12T16:38:31;17.50;99.90
24682;DHT22;12802;53.390;-2.328;2022-09-12T16:41:02;17.40;99.90
24682;DHT22;12802;53.390;-2.328;2022-09-12T16:43:29;17.30;99.90
24682;DHT22;12802;53.390;-2.328;2022-09-12T16:46:06;17.20;99.90
24682;DHT22;12802;53.390;-2.328;2022-09-12T16:48:33;17.20;99.90
24682;DHT22;12802;53.390;-2.328;2022-09-12T16:51:00;17.10;99.90
24682;DHT22;12802;53.390;-2.328;2022-09-12T16:53:33;17.10;99.90
24682;DHT22;12802;53.390;-2.328;2022-09-12T16:55:59;17.00;99.90
24682;DHT22;12802;53.390;-2.328;2022-09-12T16:58:25;16.90;99.90
24682;DHT22;12802;53.390;-2.328;2022-09-12T17:03:36;16.90;99.90
24682;DHT22;12802;53.390;-2.328;2022-09-12T17:06:13;16.80;99.90
24682;DHT22;12802;53.390;-2.328;2022-09-12T17:08:41;16.80;99.90
24682;DHT22;12802;53.390;-2.328;2022-09-12T17:11:09;16.80;99.90
24682;DHT22;12802;53.390;-2.328;2022-09-12T17:13:35;16.80;99.90
24682;DHT22;12802;53.390;-2.328;2022-09-12T17:16:05;16.80;99.90
24682;DHT22;12802;53.390;-2.328;2022-09-12T17:18:32;16.80;99.90
24682;DHT22;12802;53.390;-2.328;2022-09-12T17:20:58;16.80;99.90
24682;DHT22;12802;53.390;-2.328;2022-09-12T17:23:24;16.80;99.90
24682;DHT22;12802;53.390;-2.328;2022-09-12T17:25:50;16.80;99.90
24682;DHT22;12802;53.390;-2.328;2022-09-12T17:28:19;16.80;99.90
24682;DHT22;12802;53.390;-2.328;2022-09-12T17:30:45;16.80;99.90
24682;DHT22;12802;53.390;-2.328;2022-09-12T17:33:12;16.80;99.90
24682;DHT22;12802;53.390;-2.328;2022-09-12T17:35:39;16.70;99.90
24682;DHT22;12802;53.390;-2.328;2022-09-12T17:38:07;16.60;99.90
24682;DHT22;12802;53.390;-2.328;2022-09-12T17:40:34;16.50;99.90
24682;DHT22;12802;53.390;-2.328;2022-09-12T17:43:01;16.40;99.90
24682;DHT22;12802;53.390;-2.328;2022-09-12T17:45:27;16.30;99.90
24682;DHT22;12802;53.390;-2.328;2022-09-12T17:47:53;16.30;99.90
24682;DHT22;12802;53.390;-2.328;2022-09-12T17:50:19;16.30;99.90
24682;DHT22;12802;53.390;-2.328;2022-09-12T17:52:45;16.30;99.90
24682;DHT22;12802;53.390;-2.328;2022-09-12T17:55:11;16.20;99.90
24682;DHT22;12802;53.390;-2.328;2022-09-12T17:57:38;16.10;99.90
24682;DHT22;12802;53.390;-2.328;2022-09-12T18:00:05;16.00;99.90
24682;DHT22;12802;53.390;-2.328;2022-09-12T18:02:37;16.00;99.90
24682;DHT22;12802;53.390;-2.328;2022-09-12T18:05:03;15.90;99.90
24682;DHT22;12802;53.390;-2.328;2022-09-12T18:07:31;15.90;99.90
24682;DHT22;12802;53.390;-2.328;2022-09-12T18:09:57;15.90;99.90
24682;DHT22;12802;53.390;-2.328;2022-09-12T18:12:23;15.70;99.90
24682;DHT22;12802;53.390;-2.328;2022-09-12T18:14:49;15.50;99.90
24682;DHT22;12802;53.390;-2.328;2022-09-12T18:17:15;15.50;99.90
24682;DHT22;12802;53.390;-2.328;2022-09-12T18:19:41;15.60;99.90
24682;DHT22;12802;53.390;-2.328;2022-09-12T18:22:06;15.60;99.90
24682;DHT22;12802;53.390;-2.328;2022-09-12T18:24:34;15.60;99.90
24682;DHT22;12802;53.390;-2.328;2022-09-12T18:27:00;15.60;99.90
24682;DHT22;12802;53.390;-2.328;2022-09-12T18:29:27;15.50;99.90
24682;DHT22;12802;53.390;-2.328;2022-09-12T18:31:53;15.50;99.90
24682;DHT22;12802;53.390;-2.328;2022-09-12T18:34:19;15.50;99.90